createdAt,value
2022-11-12T00:04:09.501Z,10.02
2022-11-12T00:09:33.520Z,7.95
2022-11-12T00:14:54.677Z,7.63
2022-11-12T00:20:16.044Z,9.07
2022-11-12T00:25:37.679Z,9.13
2022-11-12T00:30:58.638Z,10.10
2022-11-12T00:36:20.030Z,9.15
2022-11-12T00:41:41.260Z,6.38
2022-11-12T00:47:02.716Z,6.35
2022-11-12T00:52:24.381Z,10.07
2022-11-12T00:57:45.617Z,9.98
2022-11-12T01:03:06.689Z,9.93
2022-11-12T01:08:29.854Z,10.48
2022-11-12T01:14:02.652Z,10.23
2022-11-12T01:19:23.391Z,11.15
2022-11-12T01:24:44.837Z,10.48
2022-11-12T01:30:07.569Z,11.02
2022-11-12T01:35:28.586Z,7.35
2022-11-12T01:40:49.483Z,8.32
2022-11-12T01:46:21.789Z,10.45
2022-11-12T01:51:47.985Z,9.82
2022-11-12T01:57:11.070Z,8.45
2022-11-12T02:02:35.873Z,8.98
2022-11-12T02:07:59.013Z,8.40
2022-11-12T02:13:38.973Z,10.27
2022-11-12T02:19:00.151Z,7.10
2022-11-12T02:24:21.153Z,7.30
2022-11-12T02:29:48.181Z,8.70
2022-11-12T02:35:09.747Z,12.38
2022-11-12T02:40:30.823Z,10.32
2022-11-12T02:45:51.829Z,11.18
2022-11-12T02:51:14.854Z,8.20
2022-11-12T02:56:53.166Z,9.95
2022-11-12T03:02:14.404Z,8.40
2022-11-12T03:07:35.408Z,8.50
2022-11-12T03:12:58.991Z,10.30
2022-11-12T03:18:23.632Z,9.27
2022-11-12T03:23:45.216Z,7.80
2022-11-12T03:29:06.470Z,12.65
2022-11-12T03:34:27.305Z,10.07
2022-11-12T03:39:48.481Z,12.02
2022-11-12T03:45:09.467Z,11.00
2022-11-12T03:50:30.758Z,8.95
2022-11-12T03:55:52.136Z,9.98
2022-11-12T04:01:13.801Z,9.88
2022-11-12T04:06:53.524Z,9.63
2022-11-12T04:12:33.012Z,13.13
2022-11-12T04:18:13.596Z,11.35
2022-11-12T04:23:34.476Z,14.43
2022-11-12T04:29:13.672Z,11.38
2022-11-12T04:34:35.007Z,10.20
2022-11-12T04:40:16.137Z,16.02
2022-11-12T04:45:38.325Z,40.40
2022-11-12T04:51:01.485Z,31.30
2022-11-12T04:56:22.643Z,18.93
2022-11-12T05:01:45.875Z,9.40
2022-11-12T05:07:07.106Z,10.98
2022-11-12T05:12:28.315Z,36.72
2022-11-12T05:17:49.566Z,34.15
2022-11-12T05:23:13.946Z,19.63
2022-11-12T05:28:35.261Z,16.88
2022-11-12T05:33:56.206Z,17.70
2022-11-12T05:39:17.410Z,20.33
2022-11-12T05:44:38.394Z,15.70
2022-11-12T05:49:59.412Z,10.55
2022-11-12T05:55:20.214Z,14.15
2022-11-12T06:00:41.697Z,11.98
2022-11-12T06:06:02.774Z,23.58
2022-11-12T06:11:24.076Z,20.92
2022-11-12T06:16:45.313Z,19.27
2022-11-12T06:22:06.414Z,15.77
2022-11-12T06:27:29.284Z,13.15
2022-11-12T06:32:50.932Z,14.37
2022-11-12T06:38:12.089Z,13.25
2022-11-12T06:43:34.539Z,12.07
2022-11-12T06:48:55.423Z,38.50
2022-11-12T06:54:16.381Z,30.02
2022-11-12T06:59:37.234Z,15.00
2022-11-12T07:04:58.062Z,14.45
2022-11-12T07:10:19.164Z,12.50
2022-11-12T07:15:40.497Z,16.05
2022-11-12T07:21:09.923Z,15.32
2022-11-12T07:26:31.864Z,12.32
2022-11-12T07:31:53.031Z,11.80
2022-11-12T07:37:14.654Z,25.40
2022-11-12T07:42:35.914Z,20.88
2022-11-12T07:48:02.158Z,17.58
2022-11-12T07:53:23.421Z,17.85
2022-11-12T07:58:45.572Z,28.48
2022-11-12T08:04:09.446Z,38.63
2022-11-12T08:14:52.189Z,59.85
2022-11-12T08:20:13.602Z,41.15
2022-11-12T08:25:34.699Z,31.02
2022-11-12T08:30:56.910Z,41.92
2022-11-12T08:36:19.206Z,39.05
2022-11-12T08:41:40.267Z,27.70
2022-11-12T08:47:01.299Z,19.52
2022-11-12T08:52:26.227Z,24.27
2022-11-12T08:57:49.118Z,19.60
2022-11-12T09:03:21.862Z,27.30
2022-11-12T09:08:43.805Z,23.60
2022-11-12T09:14:26.988Z,19.75
2022-11-12T09:19:48.233Z,18.90
2022-11-12T09:25:09.391Z,37.13
2022-11-12T09:30:39.955Z,34.03
2022-11-12T09:36:06.262Z,20.63
2022-11-12T09:41:35.873Z,19.38
2022-11-12T09:47:39.378Z,20.73
2022-11-12T09:53:44.903Z,18.30
2022-11-12T09:59:14.983Z,20.40
2022-11-12T10:05:02.323Z,18.50
2022-11-12T10:10:45.072Z,15.38
2022-11-12T10:16:45.764Z,15.88
2022-11-12T10:22:27.150Z,22.02
2022-11-12T10:27:49.502Z,23.05
2022-11-12T10:33:15.208Z,16.48
2022-11-12T10:38:37.186Z,20.75
2022-11-12T10:44:02.267Z,14.57
2022-11-12T11:02:29.167Z,16.00
2022-11-12T12:46:54.161Z,26.13
2022-11-12T12:53:02.919Z,21.70
2022-11-12T12:58:44.469Z,27.00
2022-11-12T13:04:47.894Z,40.35
2022-11-12T13:10:52.687Z,47.63
2022-11-12T13:17:40.656Z,43.45
2022-11-12T13:23:12.818Z,26.27
2022-11-12T13:34:32.306Z,16.58
2022-11-12T13:39:54.369Z,21.27
2022-11-12T13:45:19.838Z,23.00
2022-11-12T13:50:41.366Z,23.77
2022-11-12T13:56:03.059Z,18.55
2022-11-12T14:01:25.514Z,14.63
2022-11-12T14:06:51.292Z,12.80
2022-11-12T14:12:21.575Z,17.50
2022-11-12T14:18:19.616Z,15.48
2022-11-12T14:23:41.750Z,13.80
2022-11-12T14:29:10.132Z,34.00
2022-11-12T14:34:33.292Z,24.92
2022-11-12T14:39:54.647Z,27.45
2022-11-12T14:45:24.362Z,31.42
2022-11-12T14:51:06.267Z,31.52
2022-11-12T14:56:59.747Z,38.47
2022-11-12T15:03:32.884Z,48.13
2022-11-12T15:15:24.307Z,41.70
2022-11-12T15:20:46.581Z,71.53
2022-11-12T15:26:55.035Z,80.37
2022-11-12T15:33:17.511Z,95.57
2022-11-12T15:51:15.968Z,85.88
2022-11-12T15:56:36.863Z,79.60
2022-11-12T16:01:59.490Z,46.47
2022-11-12T16:07:20.534Z,27.25
2022-11-12T16:12:42.785Z,42.92
2022-11-12T16:18:03.710Z,40.80
2022-11-12T16:23:25.068Z,48.83
2022-11-12T16:28:52.164Z,32.55
2022-11-12T16:34:13.040Z,27.15
2022-11-12T16:39:34.062Z,30.98
2022-11-12T16:44:54.997Z,38.25
2022-11-12T16:50:18.400Z,48.88
2022-11-12T16:55:39.725Z,62.08
2022-11-12T17:01:02.284Z,50.10
2022-11-12T17:06:31.975Z,44.40
2022-11-12T17:11:53.058Z,53.95
2022-11-12T17:17:14.264Z,45.80
2022-11-12T17:22:35.767Z,45.28
2022-11-12T17:27:56.649Z,42.30
2022-11-12T17:33:17.569Z,47.30
2022-11-12T17:38:38.619Z,41.35
2022-11-12T17:44:00.615Z,30.02
2022-11-12T17:49:21.829Z,38.47
2022-11-12T17:54:42.699Z,53.88
2022-11-12T18:00:04.519Z,57.05
2022-11-12T18:05:27.618Z,44.75
2022-11-12T18:10:58.732Z,48.90
2022-11-12T18:16:26.129Z,51.25
2022-11-12T18:21:57.797Z,43.53
2022-11-12T18:27:20.320Z,54.30
2022-11-12T18:32:47.275Z,67.75
2022-11-12T18:38:14.370Z,42.15
2022-11-12T18:43:56.132Z,48.30
2022-11-12T18:54:43.050Z,77.82
2022-11-12T19:00:04.831Z,84.13
2022-11-12T19:05:26.018Z,146.10
2022-11-12T19:10:46.806Z,118.30
2022-11-12T19:16:13.411Z,129.75
2022-11-12T19:21:38.534Z,160.02
2022-11-12T19:27:00.165Z,148.30
2022-11-12T19:32:22.766Z,90.45
2022-11-12T19:37:45.040Z,65.55
2022-11-12T19:43:07.138Z,51.60
2022-11-12T19:48:28.564Z,58.40
2022-11-12T19:53:51.092Z,54.47
2022-11-12T19:59:17.787Z,54.67
2022-11-12T20:04:38.659Z,59.13
2022-11-12T20:10:01.216Z,97.10
2022-11-12T20:15:22.197Z,89.88
2022-11-12T20:20:52.617Z,76.22
2022-11-12T20:26:15.222Z,78.85
2022-11-12T20:31:38.152Z,123.80
2022-11-12T20:36:59.294Z,89.10
2022-11-12T20:42:20.566Z,133.68
2022-11-12T20:47:42.313Z,127.88
2022-11-12T20:53:03.556Z,101.75
2022-11-12T20:58:25.009Z,127.20
2022-11-12T21:03:46.876Z,124.88
2022-11-12T21:09:08.137Z,144.30
2022-11-12T21:14:29.134Z,127.38
2022-11-12T21:19:50.278Z,83.78
2022-11-12T21:25:17.887Z,75.38
2022-11-12T21:30:44.131Z,80.03
2022-11-12T21:36:16.823Z,62.50
2022-11-12T21:41:37.725Z,60.95
2022-11-12T21:46:58.964Z,85.22
2022-11-12T21:52:20.422Z,72.28
2022-11-12T21:57:41.470Z,77.50
2022-11-12T22:03:02.616Z,94.43
2022-11-12T22:08:23.557Z,99.93
2022-11-12T22:13:45.079Z,81.13
2022-11-12T22:19:06.414Z,75.40
2022-11-12T22:24:27.522Z,80.45
2022-11-12T22:29:48.843Z,78.95
2022-11-12T22:35:11.692Z,87.38
2022-11-12T22:40:32.611Z,86.10
2022-11-12T22:45:53.581Z,84.25
2022-11-12T22:51:18.631Z,94.05
2022-11-12T22:56:42.592Z,91.03
2022-11-12T23:02:08.015Z,74.85
2022-11-12T23:07:29.260Z,65.32
2022-11-12T23:12:50.453Z,47.08
2022-11-12T23:18:11.879Z,42.78
2022-11-12T23:23:33.747Z,41.95
2022-11-12T23:28:56.031Z,56.97
2022-11-12T23:34:17.773Z,42.63
2022-11-12T23:39:39.344Z,34.03
2022-11-12T23:45:01.276Z,36.20
2022-11-12T23:50:22.489Z,31.33
2022-11-12T23:55:44.389Z,35.80
